Time;durP1;ratioP1;P1;durP2;ratioP2;P2;SDS_P1;SDS_P2;PMS_P1;PMS_P2;Temp;Humidity;BMP_temperature;BMP_pressure;BME280_temperature;BME280_humidity;BME280_pressure;Samples;Min_cycle;Max_cycle;Signal;HPM_P1;HPM_P2
2024/02/15 00:02:21;;;;;;;20.17;8.48;;;11.00;99.90;;;;;;5022062;28;20053;-74
2024/02/15 00:04:46;;;;;;;28.10;10.95;;;11.10;99.90;;;;;;5022586;28;20041;-74
2024/02/15 00:07:12;;;;;;;32.95;9.63;;;11.00;99.90;;;;;;5022584;28;20053;-74
2024/02/15 00:09:38;;;;;;;32.92;10.13;;;11.10;99.90;;;;;;5022513;28;20078;-74
2024/02/15 00:12:04;;;;;;;26.27;9.95;;;11.00;99.90;;;;;;5003954;28;20053;-74
2024/02/15 00:14:31;;;;;;;34.88;11.38;;;11.00;99.90;;;;;;5018704;28;20140;-74
2024/02/15 00:16:57;;;;;;;37.92;10.63;;;11.00;99.90;;;;;;5022011;28;20053;-74
2024/02/15 00:19:23;;;;;;;31.45;10.38;;;11.00;99.90;;;;;;5020020;28;20045;-73
2024/02/15 00:21:49;;;;;;;22.98;8.70;;;11.00;99.90;;;;;;5004153;28;20396;-74
2024/02/15 00:24:15;;;;;;;34.13;10.05;;;11.00;99.90;;;;;;5020406;28;20500;-73
2024/02/15 00:26:42;;;;;;;44.65;11.30;;;11.00;99.90;;;;;;5019736;28;20104;-74
2024/02/15 00:29:09;;;;;;;44.42;10.23;;;11.00;99.90;;;;;;5021254;28;20057;-74
2024/02/15 00:31:35;;;;;;;44.30;11.38;;;11.00;99.90;;;;;;5019588;28;20208;-74
2024/02/15 00:34:02;;;;;;;41.25;11.27;;;11.00;99.90;;;;;;5021752;28;20511;-73
2024/02/15 00:36:29;;;;;;;33.83;8.77;;;11.00;99.90;;;;;;5003464;28;20038;-74
2024/02/15 00:38:55;;;;;;;38.20;11.85;;;11.00;99.90;;;;;;5016895;28;20081;-73
2024/02/15 00:41:21;;;;;;;42.78;11.88;;;11.00;99.90;;;;;;4987692;28;20467;-73
2024/02/15 00:43:47;;;;;;;43.20;11.48;;;11.00;99.90;;;;;;5021701;28;20042;-73
2024/02/15 00:46:14;;;;;;;32.15;8.98;;;11.00;99.90;;;;;;5020639;28;20041;-74
2024/02/15 00:48:40;;;;;;;33.53;11.75;;;11.00;99.90;;;;;;5003247;28;20606;-73
2024/02/15 00:51:06;;;;;;;41.38;11.10;;;11.00;99.90;;;;;;5003666;28;20045;-73
2024/02/15 00:53:32;;;;;;;34.35;9.18;;;11.00;99.90;;;;;;4985462;28;20056;-74
2024/02/15 00:55:58;;;;;;;35.80;11.57;;;11.00;99.90;;;;;;5021843;28;20045;-73
2024/02/15 00:58:25;;;;;;;41.53;11.23;;;11.00;99.90;;;;;;5020337;28;20041;-73
2024/02/15 01:00:50;;;;;;;33.10;11.27;;;11.00;99.90;;;;;;5018624;28;20045;-73
2024/02/15 01:03:16;;;;;;;32.38;10.48;;;11.10;99.90;;;;;;5020290;28;20642;-74
2024/02/15 01:05:42;;;;;;;42.40;11.93;;;11.10;99.90;;;;;;5001188;28;20534;-73
2024/02/15 01:08:08;;;;;;;32.20;10.95;;;11.00;99.90;;;;;;5020949;28;20527;-73
2024/02/15 01:10:35;;;;;;;32.35;11.02;;;11.00;99.90;;;;;;5019325;28;20080;-73
2024/02/15 01:13:01;;;;;;;34.13;10.13;;;11.00;99.90;;;;;;5020794;28;20557;-73
2024/02/15 01:15:26;;;;;;;26.42;8.07;;;11.10;99.90;;;;;;5017471;28;20144;-73
2024/02/15 01:17:52;;;;;;;38.90;10.90;;;11.00;99.90;;;;;;5020517;28;20041;-73
2024/02/15 01:20:18;;;;;;;40.22;11.40;;;11.00;99.90;;;;;;5020696;28;20053;-73
2024/02/15 01:22:46;;;;;;;22.05;7.85;;;11.00;99.90;;;;;;5001223;28;20411;-73
2024/02/15 01:25:12;;;;;;;38.90;13.00;;;11.00;99.90;;;;;;5014521;28;20091;-73
2024/02/15 01:27:41;;;;;;;47.30;12.43;;;11.00;99.90;;;;;;5038553;28;20053;-73
2024/02/15 01:30:08;;;;;;;38.00;12.20;;;11.10;99.90;;;;;;5022426;28;20063;-73
2024/02/15 01:32:34;;;;;;;41.60;12.48;;;11.00;99.90;;;;;;5038642;28;20518;-73
2024/02/15 01:35:00;;;;;;;39.17;12.30;;;11.00;99.90;;;;;;5040553;28;20080;-74
2024/02/15 01:37:26;;;;;;;29.45;9.75;;;11.00;99.90;;;;;;5039247;28;20106;-73
2024/02/15 01:39:52;;;;;;;33.10;10.50;;;11.00;99.90;;;;;;5039254;28;20531;-73
2024/02/15 01:42:18;;;;;;;42.58;13.73;;;11.00;99.90;;;;;;5040217;28;20044;-73
2024/02/15 01:44:44;;;;;;;45.97;12.82;;;11.00;99.90;;;;;;5038673;28;20427;-73
2024/02/15 01:47:11;;;;;;;39.95;9.60;;;11.00;99.90;;;;;;5040336;28;20048;-73
2024/02/15 01:49:37;;;;;;;37.55;12.23;;;11.00;99.90;;;;;;5038101;28;20495;-73
2024/02/15 01:52:08;;;;;;;33.97;10.43;;;11.00;99.90;;;;;;5040411;28;20047;-73
2024/02/15 01:54:35;;;;;;;20.85;7.95;;;11.00;99.90;;;;;;5039384;28;20049;-73
2024/02/15 01:57:02;;;;;;;33.42;10.75;;;11.00;99.90;;;;;;5039474;28;20567;-73
2024/02/15 01:59:29;;;;;;;34.00;11.02;;;11.00;99.90;;;;;;5039360;28;20052;-73
2024/02/15 02:01:55;;;;;;;30.92;10.57;;;11.00;99.90;;;;;;5038895;28;20048;-73
2024/02/15 02:04:21;;;;;;;37.97;10.88;;;11.10;99.90;;;;;;5039948;28;20056;-73
2024/02/15 02:06:47;;;;;;;47.10;12.43;;;11.00;99.90;;;;;;5037135;28;20048;-73
2024/02/15 02:09:14;;;;;;;33.67;11.25;;;11.10;99.90;;;;;;5039934;28;20033;-73
2024/02/15 02:11:41;;;;;;;33.20;11.45;;;11.10;99.90;;;;;;5038207;28;20501;-73
2024/02/15 02:14:07;;;;;;;34.53;11.35;;;11.10;99.90;;;;;;5021491;28;20519;-73
2024/02/15 02:16:35;;;;;;;38.55;12.20;;;11.10;99.90;;;;;;5021380;28;20047;-73
2024/02/15 02:19:01;;;;;;;31.15;10.10;;;11.10;99.90;;;;;;5008968;28;20756;-73
2024/02/15 02:21:28;;;;;;;26.38;10.07;;;11.00;99.90;;;;;;5025518;28;20489;-73
2024/02/15 02:23:57;;;;;;;35.45;10.77;;;11.10;99.90;;;;;;5042360;28;20747;-73
2024/02/15 02:26:24;;;;;;;30.27;10.52;;;11.10;99.90;;;;;;5043115;28;20037;-73
2024/02/15 02:28:54;;;;;;;44.10;11.15;;;11.10;99.90;;;;;;5008206;28;20052;-73
2024/02/15 02:31:23;;;;;;;30.25;10.80;;;11.00;99.90;;;;;;5042944;28;20045;-73
2024/02/15 02:33:52;;;;;;;31.70;9.82;;;11.00;99.90;;;;;;5042341;28;20406;-73
2024/02/15 02:36:18;;;;;;;21.92;8.23;;;11.00;99.90;;;;;;5041934;28;20380;-73
2024/02/15 02:38:45;;;;;;;30.05;8.90;;;11.00;99.90;;;;;;5044033;28;20044;-73
2024/02/15 02:41:12;;;;;;;19.25;8.25;;;11.00;99.90;;;;;;5041934;28;20114;-73
2024/02/15 02:43:40;;;;;;;25.83;7.82;;;11.00;99.90;;;;;;5025335;28;20114;-73
2024/02/15 02:46:05;;;;;;;28.52;8.50;;;11.00;99.90;;;;;;5042574;28;20041;-73
2024/02/15 02:48:31;;;;;;;21.90;7.63;;;11.10;99.90;;;;;;5042510;28;20076;-73
2024/02/15 02:50:57;;;;;;;27.88;7.97;;;11.10;99.90;;;;;;5008432;28;20136;-72
2024/02/15 02:53:24;;;;;;;30.08;7.35;;;11.00;99.90;;;;;;5041502;28;20591;-73
2024/02/15 02:55:51;;;;;;;19.23;7.78;;;11.00;99.90;;;;;;5043335;28;20109;-73
2024/02/15 02:58:16;;;;;;;32.38;8.82;;;10.90;99.90;;;;;;5041287;28;20120;-72
2024/02/15 03:00:42;;;;;;;29.20;7.50;;;10.90;99.90;;;;;;5026636;28;20164;-73
2024/02/15 03:03:09;;;;;;;10.20;4.40;;;10.90;99.90;;;;;;5041882;28;20041;-73
2024/02/15 03:05:35;;;;;;;28.42;8.05;;;11.00;99.90;;;;;;5042857;28;20550;-72
2024/02/15 03:08:01;;;;;;;25.50;6.38;;;11.00;99.90;;;;;;5042510;28;20048;-73
2024/02/15 03:10:27;;;;;;;22.38;6.30;;;11.10;99.90;;;;;;5007026;28;20056;-72
2024/02/15 03:12:52;;;;;;;22.67;7.15;;;11.00;99.90;;;;;;5024526;28;20041;-72
2024/02/15 03:15:18;;;;;;;30.85;7.65;;;11.00;99.90;;;;;;5039813;28;20103;-72
2024/02/15 03:17:46;;;;;;;16.00;5.32;;;11.00;99.90;;;;;;5041814;28;20341;-72
2024/02/15 03:20:20;;;;;;;28.98;6.55;;;11.00;99.90;;;;;;5006248;28;20392;-73
2024/02/15 03:22:59;;;;;;;23.45;6.75;;;11.00;99.90;;;;;;5042069;28;20095;-72
2024/02/15 03:25:28;;;;;;;19.98;6.45;;;11.00;99.90;;;;;;5039939;28;20057;-73
2024/02/15 03:27:56;;;;;;;22.50;6.85;;;11.00;99.90;;;;;;5042051;28;20084;-73
2024/02/15 03:30:26;;;;;;;13.88;6.28;;;11.00;99.90;;;;;;5041554;28;20087;-73
2024/02/15 03:32:53;;;;;;;22.92;6.80;;;11.10;99.90;;;;;;5040693;28;20045;-72
2024/02/15 03:35:22;;;;;;;24.63;7.57;;;11.10;99.90;;;;;;5041273;28;20041;-72
2024/02/15 03:37:51;;;;;;;22.02;6.50;;;11.00;99.90;;;;;;5039164;28;20148;-72
2024/02/15 03:40:21;;;;;;;29.53;6.53;;;11.10;99.90;;;;;;5042434;28;20495;-72
2024/02/15 03:42:50;;;;;;;21.52;6.70;;;11.00;99.90;;;;;;5026047;28;20287;-72
2024/02/15 03:45:15;;;;;;;15.20;5.28;;;11.00;99.90;;;;;;5039752;28;20044;-72
2024/02/15 03:47:41;;;;;;;16.45;5.55;;;11.00;99.90;;;;;;5022058;28;20413;-72
2024/02/15 03:50:11;;;;;;;18.02;5.70;;;11.00;99.90;;;;;;5038561;28;20472;-73
2024/02/15 03:52:38;;;;;;;21.42;5.38;;;11.00;99.90;;;;;;5037346;28;20053;-72
2024/02/15 03:55:05;;;;;;;14.70;5.43;;;11.10;99.90;;;;;;5041236;28;20396;-72
2024/02/15 03:57:30;;;;;;;28.30;6.40;;;11.00;99.90;;;;;;5041631;28;20049;-72
2024/02/15 03:59:57;;;;;;;21.10;5.75;;;11.00;99.90;;;;;;5042211;28;20052;-72
2024/02/15 04:02:30;;;;;;;33.65;6.93;;;11.10;99.90;;;;;;5041197;28;20452;-72
2024/02/15 04:04:57;;;;;;;26.67;6.50;;;11.00;99.90;;;;;;5040923;28;20410;-72
2024/02/15 04:07:26;;;;;;;18.80;5.68;;;11.00;99.90;;;;;;5039776;28;20036;-72
2024/02/15 04:09:53;;;;;;;27.52;5.82;;;11.00;99.90;;;;;;5041714;28;20457;-72
2024/02/15 04:12:18;;;;;;;21.48;6.38;;;11.00;99.90;;;;;;5039300;28;20515;-73
2024/02/15 04:14:48;;;;;;;21.77;6.15;;;11.10;99.90;;;;;;5040156;28;20048;-72
2024/02/15 04:17:21;;;;;;;31.35;5.30;;;11.00;99.90;;;;;;5039946;28;20119;-72
2024/02/15 04:19:47;;;;;;;14.77;4.57;;;11.00;99.90;;;;;;5023186;28;20087;-72
2024/02/15 04:22:16;;;;;;;16.95;5.22;;;11.10;99.90;;;;;;5042066;28;20072;-72
2024/02/15 04:24:42;;;;;;;29.95;5.50;;;11.10;99.90;;;;;;5039457;28;20391;-73
2024/02/15 04:27:12;;;;;;;18.70;4.88;;;11.00;99.90;;;;;;5041561;28;20049;-72
2024/02/15 04:29:43;;;;;;;25.67;5.43;;;11.00;99.90;;;;;;5038985;28;20052;-72
2024/02/15 04:32:10;;;;;;;28.35;5.95;;;11.00;99.90;;;;;;5022015;28;20052;-72
2024/02/15 04:34:42;;;;;;;21.25;5.57;;;11.00;99.90;;;;;;5041161;28;20070;-72
2024/02/15 04:37:08;;;;;;;32.60;6.63;;;11.00;99.90;;;;;;5037861;28;20263;-72
2024/02/15 04:39:38;;;;;;;34.00;6.30;;;11.00;99.90;;;;;;5007540;28;20045;-72
2024/02/15 04:42:06;;;;;;;26.73;5.70;;;11.00;99.90;;;;;;5039131;28;20052;-72
2024/02/15 04:44:34;;;;;;;33.95;5.90;;;11.10;99.90;;;;;;5039212;28;20638;-72
2024/02/15 04:47:00;;;;;;;35.17;5.82;;;11.10;99.90;;;;;;5020681;28;20060;-72
2024/02/15 04:49:28;;;;;;;31.65;5.05;;;11.00;99.90;;;;;;5041042;28;20037;-72
2024/02/15 04:51:55;;;;;;;21.05;4.93;;;11.00;99.90;;;;;;5039148;28;20084;-72
2024/02/15 04:54:21;;;;;;;34.72;6.07;;;11.10;99.90;;;;;;5039875;28;20526;-72
2024/02/15 04:56:47;;;;;;;25.02;7.00;;;11.10;99.90;;;;;;5040736;28;20120;-72
2024/02/15 04:59:15;;;;;;;31.33;5.25;;;11.10;99.90;;;;;;5039347;28;20045;-72
2024/02/15 05:01:45;;;;;;;39.13;5.93;;;11.10;99.90;;;;;;5022118;28;20060;-72
2024/02/15 05:04:12;;;;;;;28.55;6.60;;;11.10;99.90;;;;;;5022079;28;20474;-72
2024/02/15 05:06:38;;;;;;;27.83;6.47;;;11.10;99.90;;;;;;5040815;28;20051;-72
2024/02/15 05:09:09;;;;;;;29.80;7.25;;;11.10;99.90;;;;;;5040780;28;20076;-72
2024/02/15 05:11:46;;;;;;;32.83;7.25;;;11.10;99.90;;;;;;5039159;28;20049;-72
2024/02/15 05:14:12;;;;;;;32.15;7.22;;;11.10;99.90;;;;;;5041014;28;20447;-72
2024/02/15 05:16:42;;;;;;;34.15;7.32;;;11.10;99.90;;;;;;5039505;28;20468;-72
2024/02/15 05:19:12;;;;;;;25.65;8.00;;;11.00;99.90;;;;;;5022963;28;20381;-72
2024/02/15 05:21:38;;;;;;;31.10;7.97;;;11.10;99.90;;;;;;5040059;28;20070;-72
2024/02/15 05:24:05;;;;;;;42.75;8.63;;;11.10;99.90;;;;;;5021005;28;20413;-72
2024/02/15 05:26:31;;;;;;;25.52;9.63;;;11.10;99.90;;;;;;5038625;28;20048;-72
2024/02/15 05:28:57;;;;;;;22.55;8.60;;;11.20;99.90;;;;;;5038971;28;20426;-72
2024/02/15 05:31:25;;;;;;;34.05;8.80;;;11.10;99.90;;;;;;5040646;28;20048;-72
2024/02/15 05:33:53;;;;;;;33.78;10.88;;;11.10;99.90;;;;;;5038407;28;20055;-72
2024/02/15 05:36:20;;;;;;;24.02;9.32;;;11.10;99.90;;;;;;5022894;28;20049;-72
2024/02/15 05:38:49;;;;;;;29.92;10.55;;;11.10;99.90;;;;;;5038737;28;20037;-72
2024/02/15 05:41:16;;;;;;;31.80;10.65;;;11.10;99.90;;;;;;5037685;28;20090;-72
2024/02/15 05:43:42;;;;;;;38.08;12.13;;;11.20;99.90;;;;;;5022676;28;20162;-72
2024/02/15 05:46:09;;;;;;;50.00;12.20;;;11.10;99.90;;;;;;5038770;28;20048;-72
2024/02/15 05:48:39;;;;;;;36.85;11.50;;;11.20;99.90;;;;;;5040069;28;20044;-72
2024/02/15 05:51:06;;;;;;;40.80;12.55;;;11.20;99.90;;;;;;5038292;28;20515;-72
2024/02/15 05:53:38;;;;;;;42.60;11.48;;;11.10;99.90;;;;;;5023680;28;20036;-72
2024/02/15 05:56:08;;;;;;;29.17;11.65;;;11.10;99.90;;;;;;5038885;28;20405;-72
2024/02/15 05:58:35;;;;;;;37.97;11.95;;;11.10;99.90;;;;;;5039776;28;20575;-72
2024/02/15 06:01:04;;;;;;;33.30;11.75;;;11.10;99.90;;;;;;5039862;28;20048;-72
2024/02/15 06:03:34;;;;;;;32.75;13.07;;;11.20;99.90;;;;;;5038629;28;20041;-72
2024/02/15 06:06:06;;;;;;;42.83;13.25;;;11.10;99.90;;;;;;5039864;28;20048;-72
2024/02/15 06:08:32;;;;;;;27.73;12.57;;;11.20;99.90;;;;;;5036705;28;20041;-72
2024/02/15 06:10:58;;;;;;;42.25;14.43;;;11.20;99.90;;;;;;5021375;28;20045;-72
2024/02/15 06:13:26;;;;;;;32.63;13.15;;;11.20;99.90;;;;;;5036973;28;20056;-72
2024/02/15 06:15:53;;;;;;;41.88;15.38;;;11.20;99.90;;;;;;5021169;28;20096;-72
2024/02/15 06:18:26;;;;;;;36.15;12.32;;;11.20;99.90;;;;;;5021776;28;20057;-72
2024/02/15 06:20:52;;;;;;;31.55;13.98;;;11.20;99.90;;;;;;5038187;28;20045;-72
2024/02/15 06:23:18;;;;;;;30.52;13.85;;;11.20;99.90;;;;;;5040350;28;20048;-72
2024/02/15 06:25:44;;;;;;;36.83;14.02;;;11.20;99.90;;;;;;5038892;28;20557;-72
2024/02/15 06:28:19;;;;;;;37.00;14.73;;;11.20;99.90;;;;;;5039508;28;20061;-73
2024/02/15 06:41:43;;;;;;;42.65;15.95;;;11.20;99.90;;;;;;5039451;28;20088;-73
2024/02/15 06:44:09;;;;;;;35.40;16.38;;;11.30;99.90;;;;;;5039145;28;20080;-73
2024/02/15 06:46:35;;;;;;;36.10;15.95;;;11.30;99.90;;;;;;5038108;28;20086;-74
2024/02/15 06:49:01;;;;;;;37.08;15.23;;;11.30;99.90;;;;;;5021285;28;20049;-74
2024/02/15 06:51:27;;;;;;;36.33;15.27;;;11.40;99.90;;;;;;5020215;28;20045;-74
2024/02/15 06:53:55;;;;;;;48.00;19.77;;;11.40;99.90;;;;;;5038469;28;20053;-74
2024/02/15 06:56:21;;;;;;;34.22;17.65;;;11.40;99.90;;;;;;5020214;28;20138;-74
2024/02/15 06:58:48;;;;;;;38.05;17.92;;;11.40;99.90;;;;;;5039204;28;20041;-74
2024/02/15 07:01:16;;;;;;;40.25;18.60;;;11.50;99.90;;;;;;5037863;28;20395;-75
2024/02/15 07:03:45;;;;;;;48.70;18.25;;;11.50;99.90;;;;;;5020184;28;20041;-75
2024/02/15 07:06:14;;;;;;;39.90;17.92;;;11.40;99.90;;;;;;5025883;28;20037;-75
2024/02/15 07:08:40;;;;;;;39.45;17.75;;;11.50;99.90;;;;;;5041621;28;20052;-74
2024/02/15 07:11:09;;;;;;;49.85;19.55;;;11.40;99.90;;;;;;5038571;28;20507;-75
2024/02/15 07:13:38;;;;;;;45.55;20.15;;;11.40;99.90;;;;;;5038751;28;20049;-75
2024/02/15 07:16:08;;;;;;;34.15;17.00;;;11.40;99.90;;;;;;5024370;28;20120;-75
2024/02/15 07:18:33;;;;;;;;;;;11.40;99.90;;;;;;5043431;28;20589;-75
2024/02/15 07:21:00;;;;;;;43.28;17.58;;;11.40;99.90;;;;;;5040676;28;20035;-75
2024/02/15 07:23:27;;;;;;;44.97;18.98;;;11.50;99.90;;;;;;5024965;28;20099;-75
2024/02/15 07:25:58;;;;;;;57.97;20.35;;;11.40;99.90;;;;;;5041475;28;20045;-75
2024/02/15 07:28:26;;;;;;;50.75;19.45;;;11.40;99.90;;;;;;5040553;28;20076;-75
2024/02/15 07:30:54;;;;;;;51.20;19.13;;;11.40;99.90;;;;;;5023067;28;20049;-75
2024/02/15 07:33:23;;;;;;;53.05;20.08;;;11.40;99.90;;;;;;5042745;28;20044;-75
2024/02/15 07:35:51;;;;;;;51.92;17.58;;;11.40;99.90;;;;;;5040753;28;20594;-75
2024/02/15 07:38:17;;;;;;;43.67;18.40;;;11.40;99.90;;;;;;5040797;28;20041;-75
2024/02/15 07:40:43;;;;;;;52.28;20.05;;;11.40;99.90;;;;;;5026312;28;20577;-75
2024/02/15 07:43:10;;;;;;;47.72;19.65;;;11.40;99.90;;;;;;5023441;28;20073;-75
2024/02/15 07:45:37;;;;;;;54.78;20.63;;;11.50;99.90;;;;;;5024454;28;20423;-75
2024/02/15 07:48:05;;;;;;;42.55;18.52;;;11.40;99.90;;;;;;5040428;28;20065;-75
2024/02/15 07:50:32;;;;;;;53.95;20.33;;;11.40;99.90;;;;;;5041424;28;20029;-75
2024/02/15 07:52:57;;;;;;;51.05;19.60;;;11.40;99.90;;;;;;5041917;28;20127;-75
2024/02/15 07:55:24;;;;;;;47.33;18.15;;;11.40;99.90;;;;;;5024355;28;20136;-75
2024/02/15 07:57:51;;;;;;;49.20;19.65;;;11.50;99.90;;;;;;5005504;28;20124;-75
2024/02/15 08:00:17;;;;;;;43.92;15.55;;;11.40;99.90;;;;;;5021772;28;20483;-75
2024/02/15 08:02:43;;;;;;;42.38;17.38;;;11.50;99.90;;;;;;5042589;28;20044;-75
2024/02/15 08:05:14;;;;;;;50.13;18.20;;;11.40;99.90;;;;;;5023602;28;20049;-75
2024/02/15 08:07:44;;;;;;;34.72;14.68;;;11.50;99.90;;;;;;5008970;28;20084;-75
2024/02/15 08:10:14;;;;;;;42.33;16.20;;;11.50;99.90;;;;;;5040087;28;20036;-75
2024/02/15 08:12:49;;;;;;;43.03;15.15;;;11.60;99.90;;;;;;5041038;28;20128;-75
2024/02/15 08:15:14;;;;;;;44.28;15.70;;;11.50;99.90;;;;;;5024751;28;20057;-75
2024/02/15 08:17:41;;;;;;;45.97;17.48;;;11.50;99.90;;;;;;5023428;28;20170;-75
2024/02/15 08:20:10;;;;;;;37.38;15.00;;;11.50;99.90;;;;;;5024053;28;20064;-75
2024/02/15 08:22:38;;;;;;;40.08;14.45;;;11.50;99.90;;;;;;5040024;28;20087;-75
2024/02/15 08:25:15;;;;;;;44.95;14.93;;;11.50;99.90;;;;;;5041578;28;20045;-75
2024/02/15 08:27:44;;;;;;;35.78;14.48;;;11.50;99.90;;;;;;5022757;28;20053;-75
2024/02/15 08:30:13;;;;;;;31.15;13.02;;;11.50;99.90;;;;;;5038793;28;20056;-75
2024/02/15 08:32:43;;;;;;;44.70;15.52;;;11.60;99.90;;;;;;5041008;28;20045;-75
2024/02/15 08:35:10;;;;;;;50.42;16.83;;;11.60;99.90;;;;;;5036845;28;20064;-75
2024/02/15 08:37:37;;;;;;;46.78;16.33;;;11.60;99.90;;;;;;5041647;28;20044;-75
2024/02/15 08:40:14;;;;;;;47.03;15.07;;;11.60;99.90;;;;;;5039622;28;20048;-74
2024/02/15 08:42:44;;;;;;;45.88;15.05;;;11.60;99.90;;;;;;5040992;28;20115;-75
2024/02/15 08:45:10;;;;;;;44.15;15.43;;;11.60;99.90;;;;;;5041108;28;20374;-75
2024/02/15 08:47:40;;;;;;;44.92;15.18;;;11.50;99.90;;;;;;5039744;28;20051;-75
2024/02/15 08:50:08;;;;;;;44.10;14.80;;;11.60;99.90;;;;;;5041041;28;20037;-75
2024/02/15 08:52:37;;;;;;;50.33;13.38;;;11.60;99.90;;;;;;5020565;28;20344;-75
2024/02/15 08:55:09;;;;;;;48.85;14.80;;;11.50;99.90;;;;;;5041036;28;20088;-75
2024/02/15 08:57:36;;;;;;;43.97;13.85;;;11.60;99.90;;;;;;5039210;28;20045;-75
2024/02/15 09:00:13;;;;;;;36.20;11.57;;;11.60;99.90;;;;;;5040766;28;20049;-76
2024/02/15 09:02:45;;;;;;;38.13;13.68;;;11.60;99.90;;;;;;5036661;28;20139;-76
2024/02/15 09:05:14;;;;;;;39.33;12.18;;;11.60;99.90;;;;;;5039132;28;20045;-75
2024/02/15 09:07:43;;;;;;;36.47;12.48;;;11.60;99.90;;;;;;5025089;28;20376;-75
2024/02/15 09:10:10;;;;;;;54.08;13.70;;;11.60;99.90;;;;;;5039300;28;20514;-75
2024/02/15 09:12:39;;;;;;;34.72;12.55;;;11.60;99.90;;;;;;5019474;28;20567;-75
2024/02/15 09:15:07;;;;;;;32.87;11.83;;;11.60;99.90;;;;;;5016945;28;20576;-75
2024/02/15 09:17:38;;;;;;;24.73;9.63;;;11.70;99.90;;;;;;5019417;28;20037;-75
2024/02/15 09:20:08;;;;;;;34.47;12.68;;;11.60;99.90;;;;;;5020789;28;20045;-75
2024/02/15 09:22:35;;;;;;;37.78;11.90;;;11.70;99.90;;;;;;5014054;28;20041;-75
2024/02/15 09:25:02;;;;;;;36.17;12.38;;;11.70;99.90;;;;;;5019580;28;20504;-75
2024/02/15 09:27:28;;;;;;;39.88;12.27;;;11.60;99.90;;;;;;4999253;28;20052;-75
2024/02/15 09:29:55;;;;;;;32.60;11.60;;;11.70;99.90;;;;;;5022857;28;20100;-76
2024/02/15 09:32:22;;;;;;;34.42;10.75;;;11.60;99.90;;;;;;5019572;28;20111;-75
2024/02/15 09:34:49;;;;;;;33.33;11.55;;;11.70;99.90;;;;;;4992947;28;20087;-76
2024/02/15 09:37:15;;;;;;;38.60;10.50;;;11.70;99.90;;;;;;5016754;28;20038;-75
2024/02/15 09:39:41;;;;;;;31.27;11.52;;;11.80;99.90;;;;;;4998474;28;20085;-75
2024/02/15 09:42:07;;;;;;;22.73;10.20;;;11.70;99.90;;;;;;5021393;28;20045;-75
2024/02/15 09:44:33;;;;;;;26.85;10.88;;;11.70;99.90;;;;;;5000400;28;20107;-75
2024/02/15 09:47:11;;;;;;;28.75;10.02;;;11.70;99.90;;;;;;5021017;28;20048;-75
2024/02/15 09:49:39;;;;;;;23.58;9.45;;;11.70;99.90;;;;;;5022054;28;20049;-75
2024/02/15 09:52:11;;;;;;;20.98;8.23;;;11.80;99.90;;;;;;5023580;28;20052;-75
2024/02/15 09:54:43;;;;;;;20.52;9.13;;;11.70;99.90;;;;;;5021793;28;20049;-75
2024/02/15 09:57:10;;;;;;;19.08;7.82;;;11.70;99.90;;;;;;5019506;28;20111;-75
2024/02/15 09:59:36;;;;;;;24.23;8.63;;;11.80;99.90;;;;;;5022422;28;20073;-76
2024/02/15 10:02:03;;;;;;;26.23;8.93;;;11.80;99.90;;;;;;5020222;28;20045;-75
2024/02/15 10:04:29;;;;;;;18.48;7.20;;;11.80;99.90;;;;;;5019848;28;20939;-75
2024/02/15 10:06:55;;;;;;;21.20;8.55;;;11.90;99.90;;;;;;5020009;28;20092;-75
2024/02/15 10:09:30;;;;;;;22.48;8.75;;;11.90;99.90;;;;;;5019018;28;20555;-75
2024/02/15 10:12:00;;;;;;;22.85;8.77;;;11.80;99.90;;;;;;5019430;28;20511;-75
2024/02/15 10:14:27;;;;;;;18.52;9.07;;;12.00;99.90;;;;;;5017051;28;20092;-76
2024/02/15 10:16:54;;;;;;;14.43;8.27;;;12.00;99.90;;;;;;5020171;28;20411;-75
2024/02/15 10:19:25;;;;;;;18.70;7.80;;;12.10;99.90;;;;;;4984391;28;20057;-75
2024/02/15 10:21:57;;;;;;;16.73;8.85;;;12.10;99.90;;;;;;5018481;28;20045;-75
2024/02/15 10:24:24;;;;;;;15.95;7.68;;;12.10;99.90;;;;;;5019823;28;20487;-75
2024/02/15 10:27:00;;;;;;;22.55;9.23;;;12.10;99.90;;;;;;5000713;28;20488;-75
2024/02/15 10:29:26;;;;;;;16.88;8.23;;;12.10;99.90;;;;;;5020875;28;20557;-75
2024/02/15 10:31:56;;;;;;;21.33;9.20;;;12.10;99.90;;;;;;5017748;28;20080;-75
2024/02/15 10:34:23;;;;;;;27.52;9.25;;;12.30;99.90;;;;;;5019407;28;20045;-75
2024/02/15 10:36:50;;;;;;;27.75;9.40;;;12.20;99.90;;;;;;5000207;28;20080;-75
2024/02/15 10:39:19;;;;;;;32.53;9.88;;;12.20;99.90;;;;;;5022494;28;20088;-75
2024/02/15 10:41:50;;;;;;;29.17;9.77;;;12.30;99.90;;;;;;5022054;28;20494;-75
2024/02/15 10:44:18;;;;;;;24.83;9.25;;;12.40;99.90;;;;;;5022042;28;20053;-75
2024/02/15 10:46:51;;;;;;;21.35;9.18;;;12.40;99.90;;;;;;5022343;28;20033;-75
2024/02/15 10:49:25;;;;;;;27.00;8.57;;;12.40;99.90;;;;;;5004577;28;20049;-75
2024/02/15 10:51:54;;;;;;;17.20;7.75;;;12.50;99.90;;;;;;5020632;28;20060;-74
2024/02/15 10:54:46;;;;;;;14.70;8.48;;;12.50;99.90;;;;;;5022343;28;20041;-75
2024/02/15 10:57:14;;;;;;;25.52;8.00;;;12.50;99.90;;;;;;5021101;28;20046;-74
2024/02/15 10:59:53;;;;;;;18.27;7.97;;;12.50;99.90;;;;;;5004942;28;20046;-75
2024/02/15 11:02:36;;;;;;;15.50;7.32;;;12.50;99.90;;;;;;5003738;28;20575;-74
2024/02/15 11:05:10;;;;;;;16.65;6.63;;;12.60;99.90;;;;;;5005461;28;20053;-74
2024/02/15 11:07:36;;;;;;;15.18;7.53;;;12.70;99.90;;;;;;5019242;28;20041;-74
2024/02/15 11:10:07;;;;;;;20.30;8.00;;;12.70;99.90;;;;;;5021813;28;20093;-74
2024/02/15 11:12:34;;;;;;;19.50;7.50;;;12.70;99.90;;;;;;5011238;28;20049;-74
2024/02/15 11:15:01;;;;;;;15.43;6.88;;;12.70;99.90;;;;;;5021768;28;20041;-74
2024/02/15 11:17:39;;;;;;;14.48;6.18;;;12.70;99.90;;;;;;5023125;28;20046;-74
2024/02/15 11:20:11;;;;;;;16.17;7.00;;;12.70;99.90;;;;;;5004656;28;20045;-74
2024/02/15 11:22:38;;;;;;;13.40;6.63;;;12.70;99.90;;;;;;5025236;28;20041;-74
2024/02/15 11:25:12;;;;;;;16.02;6.07;;;12.70;99.90;;;;;;5024183;28;20116;-74
2024/02/15 11:27:41;;;;;;;16.02;7.13;;;12.70;99.90;;;;;;5019296;28;20037;-74
2024/02/15 11:30:12;;;;;;;14.90;6.75;;;12.60;99.90;;;;;;5022573;28;20046;-74
2024/02/15 11:32:49;;;;;;;12.93;6.53;;;12.60;99.90;;;;;;5021611;28;20046;-74
2024/02/15 11:35:25;;;;;;;10.82;5.68;;;12.60;99.90;;;;;;5005484;28;20052;-74
2024/02/15 11:37:52;;;;;;;21.45;7.10;;;12.60;99.90;;;;;;5022468;28;20056;-74
2024/02/15 11:40:37;;;;;;;9.98;5.50;;;12.60;99.90;;;;;;5022141;28;20524;-74
2024/02/15 11:43:04;;;;;;;10.15;4.68;;;12.60;99.90;;;;;;5006610;28;20415;-74
2024/02/15 11:45:37;;;;;;;15.95;5.88;;;12.50;99.90;;;;;;5037525;28;20182;-74
2024/02/15 11:48:07;;;;;;;16.23;5.18;;;12.50;99.90;;;;;;5025643;28;20505;-74
2024/02/15 11:50:37;;;;;;;9.32;5.28;;;12.50;99.90;;;;;;5036817;28;20048;-73
2024/02/15 11:53:10;;;;;;;9.30;4.50;;;12.50;99.90;;;;;;5038596;28;20041;-74
2024/02/15 11:55:40;;;;;;;7.90;4.82;;;12.50;99.90;;;;;;5024303;28;20037;-74
2024/02/15 12:19:55;;;;;;;12.02;5.07;;;12.50;99.90;;;;;;5039095;28;20132;-76
2024/02/15 12:22:30;;;;;;;6.40;4.28;;;12.50;99.90;;;;;;5023725;28;20053;-75
2024/02/15 12:25:00;;;;;;;6.10;3.58;;;12.50;99.90;;;;;;5038972;28;20077;-75
2024/02/15 12:27:27;;;;;;;;;;;12.50;99.90;;;;;;5039750;28;20475;-75
2024/02/15 12:30:05;;;;;;;4.10;3.58;;;12.60;99.90;;;;;;5041560;28;20310;-76
2024/02/15 12:32:31;;;;;;;9.70;3.83;;;12.60;99.90;;;;;;5023755;28;20049;-75
2024/02/15 12:35:19;;;;;;;4.85;3.20;;;12.60;99.90;;;;;;5024440;28;20045;-76
2024/02/15 12:38:08;;;;;;;3.53;2.78;;;12.60;99.90;;;;;;5040226;28;20462;-75
2024/02/15 12:40:37;;;;;;;7.13;3.10;;;12.60;99.90;;;;;;5040240;28;20324;-76
2024/02/15 12:43:08;;;;;;;5.55;3.28;;;12.60;99.90;;;;;;5039205;28;20118;-75
2024/02/15 12:45:36;;;;;;;5.38;2.92;;;12.60;99.90;;;;;;5021449;28;20048;-76
2024/02/15 12:48:05;;;;;;;3.63;2.50;;;12.60;99.90;;;;;;5039817;28;20865;-76
2024/02/15 12:50:31;;;;;;;3.15;2.55;;;12.60;99.90;;;;;;5024563;28;20053;-75
2024/02/15 12:53:05;;;;;;;2.53;2.00;;;12.70;99.90;;;;;;5040728;28;20048;-75
2024/02/15 12:55:36;;;;;;;2.13;1.83;;;12.70;99.90;;;;;;5037684;28;20440;-75
2024/02/15 12:58:04;;;;;;;3.17;1.70;;;12.70;99.90;;;;;;5037154;28;20044;-75
2024/02/15 13:00:32;;;;;;;1.65;1.55;;;12.70;99.90;;;;;;5041664;28;20120;-75
2024/02/15 13:03:03;;;;;;;5.90;1.38;;;12.80;99.90;;;;;;5038348;28;20036;-75
2024/02/15 13:05:29;;;;;;;;;;;12.80;99.90;;;;;;5039881;28;20048;-75
2024/02/15 13:07:55;;;;;;;1.08;1.02;;;12.80;99.90;;;;;;5039042;28;19928;-75
2024/02/15 13:10:22;;;;;;;1.25;1.20;;;12.80;99.90;;;;;;5022338;28;20052;-75
2024/02/15 13:12:48;;;;;;;3.78;1.17;;;12.80;99.90;;;;;;5039231;28;20053;-75